Round Lake Beach, Illinois
Current Conditions -  °F | °C
As of 3:55 PM on Monday 20 Oct 2014 (Local Time) from KUGN Reporting Station
Overcast Overcast  
Wind Chill: 53°   Ceiling: 3800
Heat Index: 53°   Visibility: 10mi
Dew Point: 45°   Wind: 7mph
Humidity: 74%   Direction: 20°NNE
Pressure: 29.89"   Gusts: NA
Location:  42.3442°N, 88.1158°W
Report Text: KUGN 202055Z 02006KT 10SM BKN038 BKN045 OVC050 12/07 A2989 RMK AO2 SLP122 T01170072 53018
Loading
Personal Weather Stations






























Interactive Weather Map
Tropical Storm Tracking
New forecast layout! Learn more

10-Day Weather Forecast

Advertisements
Track Severe Weather on mobile